Vargoey — LMEU — position and weather

sailwx.info

Track history (hours):
 
Tides and Currents Weather Stations Pressure Air Temp Water Temp Dewpoint Dewpoint Depression Visibility Wind Speed Wind Dir Waves Ship Positions

Vargoey

Last reported at 2018-Feb-22 03:00 UTC. Time now 2018-Feb-22 03:12 UTC.
Position N 69°41' E 018°45'.

Length 55 m.

Type: Cargo ship. MMSI: 258434000.

Date/timePositionNaut miles runAvg speedWind from/ knotsBaromVisibWave heightAir tempDewpointWater temp
2018-Feb-22 03:00N 69°41' E 018°45'0 0.0
2018-Feb-22 02:30N 69°41' E 018°45'2 4.8
2018-Feb-22 02:00N 69°40' E 018°52'3 6.4
2018-Feb-22 01:29N 69°37' E 018°53'4 8.6
2018-Feb-22 01:00N 69°33' E 018°55'610.6
2018-Feb-22 00:29N 69°27' E 018°58'510.6
2018-Feb-22 00:01N 69°23' E 019°04'510.3
2018-Feb-21 23:30N 69°21' E 019°18'510.0
2018-Feb-21 23:00N 69°16' E 019°22'2 3.7
2018-Feb-21 22:30N 69°14' E 019°22'0 0.0
2018-Feb-21 21:59N 69°14' E 019°22'0 0.0
2018-Feb-21 21:30N 69°14' E 019°22'0 0.0
2018-Feb-21 21:00N 69°14' E 019°22'0 0.0
2018-Feb-21 20:30N 69°14' E 019°22'0 0.0
2018-Feb-21 20:00N 69°14' E 019°22'0 0.0
2018-Feb-21 19:30N 69°14' E 019°22'0 0.0
2018-Feb-21 19:00N 69°14' E 019°22'0 0.0
2018-Feb-21 18:29N 69°14' E 019°22'0 0.0
2018-Feb-21 18:00N 69°14' E 019°22'0 0.0
2018-Feb-21 17:30N 69°14' E 019°22'4 8.8
2018-Feb-21 17:00N 69°19' E 019°22'5 9.2
2018-Feb-21 16:30N 69°22' E 019°12'5 9.5
2018-Feb-21 16:00N 69°25' E 019°01'5 9.9
2018-Feb-21 15:30N 69°29' E 018°56'5 9.9
2018-Feb-21 15:00N 69°34' E 018°51'611.4
2018-Feb-21 14:29N 69°33' E 018°35'510.6
2018-Feb-21 14:00N 69°31' E 018°20'510.0
2018-Feb-21 13:30N 69°31' E 018°06'4 8.1
2018-Feb-21 13:00N 69°31' E 017°55'0 0.7
2018-Feb-21 12:30N 69°31' E 017°55'4 7.8
2018-Feb-21 12:00N 69°29' E 018°05'510.1
2018-Feb-21 11:30N 69°24' E 018°07'5 9.3
2018-Feb-21 11:00N 69°20' E 018°02'5 9.5
2018-Feb-21 10:30N 69°15' E 017°58'2 3.3
2018-Feb-21 10:00N 69°14' E 017°58'0 0.3
2018-Feb-21 09:30N 69°14' E 017°58'2 3.0
2018-Feb-21 09:00N 69°12' E 017°60'4 8.3
2018-Feb-21 08:30N 69°09' E 017°52'510.1
2018-Feb-21 08:01N 69°07' E 017°39'510.2
2018-Feb-21 07:30N 69°05' E 017°26'510.0
2018-Feb-21 06:59N 69°01' E 017°17'5 9.8
2018-Feb-21 06:30N 68°59' E 017°06'510.0
2018-Feb-21 06:00N 68°56' E 016°54'510.3
2018-Feb-21 05:30N 68°54' E 016°41'510.0
2018-Feb-21 05:00N 68°51' E 016°30'0 0.3
2018-Feb-21 04:30N 68°51' E 016°30'2 3.9
2018-Feb-21 04:00N 68°53' E 016°27'5 9.5
2018-Feb-21 03:30N 68°56' E 016°17'5 9.5
2018-Feb-21 03:00N 68°58' E 016°05'5 9.7
2018-Feb-21 02:29N 68°59' E 015°52'5 9.6
2018-Feb-21 02:00N 68°58' E 015°39'0 0.3
2018-Feb-21 01:30N 68°58' E 015°38'0 0.0
2018-Feb-21 00:59N 68°58' E 015°38'0 0.0
2018-Feb-21 00:29N 68°58' E 015°38'0 0.6
2018-Feb-21 00:00N 68°58' E 015°38'4 8.7
2018-Feb-20 23:30N 68°54' E 015°33'510.0
2018-Feb-20 22:59N 68°49' E 015°27'5 9.9
2018-Feb-20 22:30N 68°45' E 015°25'510.2
2018-Feb-20 22:00N 68°39' E 015°25'510.0
2018-Feb-20 21:30N 68°36' E 015°15'5 9.7
2018-Feb-20 21:00N 68°32' E 015°09'4 8.7
2018-Feb-20 20:29N 68°27' E 015°11'4 8.1
2018-Feb-20 20:00N 68°24' E 015°06'5 9.5
2018-Feb-20 19:30N 68°20' E 014°60'5 9.3
2018-Feb-20 19:00N 68°15' E 014°56'4 7.4
2018-Feb-20 18:29N 68°14' E 014°46'5 9.3
2018-Feb-20 17:59N 68°13' E 014°34'1 1.8
2018-Feb-20 17:29N 68°14' E 014°35'0 0.0
2018-Feb-20 17:00N 68°14' E 014°35'2 3.0
2018-Feb-20 16:30N 68°13' E 014°34'510.1
2018-Feb-20 16:00N 68°08' E 014°33'510.2
2018-Feb-20 15:30N 68°03' E 014°32'5 9.9
2018-Feb-20 15:00N 67°58' E 014°31'510.3
2018-Feb-20 14:28N 67°52' E 014°31'510.5
2018-Feb-20 13:59N 67°47' E 014°31'510.3
2018-Feb-20 13:30N 67°42' E 014°31'510.4
2018-Feb-20 12:59N 67°37' E 014°30'510.1
2018-Feb-20 12:31N 67°32' E 014°30'510.4
2018-Feb-20 12:00N 67°27' E 014°28'510.5
2018-Feb-20 11:31N 67°22' E 014°24'510.3
2018-Feb-20 11:00N 67°18' E 014°16'3 6.2
2018-Feb-20 10:30N 67°15' E 014°19'510.6
2018-Feb-20 10:00N 67°15' E 014°33'4 8.6
2018-Feb-20 09:30N 67°14' E 014°43'4 7.2
2018-Feb-20 09:00N 67°15' E 014°51'4 7.4
2018-Feb-20 08:30N 67°15' E 015°01'1 1.5
2018-Feb-20 07:58N 67°14' E 015°01'0 0.0
2018-Feb-20 07:30N 67°14' E 015°01'0 0.0
2018-Feb-20 07:00N 67°14' E 015°01'0 0.0
2018-Feb-20 06:28N 67°14' E 015°01'0 0.0
2018-Feb-20 06:00N 67°14' E 015°01'0 0.0
2018-Feb-20 05:29N 67°14' E 015°01'1 2.6
2018-Feb-20 05:00N 67°15' E 014°60'4 9.0
2018-Feb-20 04:30N 67°15' E 014°48'4 8.7
2018-Feb-20 04:00N 67°14' E 014°37'2 4.1
2018-Feb-20 03:30N 67°15' E 014°34'2 3.6
2018-Feb-20 03:00N 67°15' E 014°29'2 3.5
2018-Feb-20 02:31N 67°14' E 014°25'2 3.8
2018-Feb-20 02:00N 67°13' E 014°20'2 4.4
2018-Feb-20 01:30N 67°12' E 014°15'2 5.0
2018-Feb-20 01:01N 67°11' E 014°10'3 6.0
2018-Feb-20 00:30N 67°10' E 014°03'4 7.5
2018-Feb-20 00:00N 67°06' E 013°59'4 7.5
2018-Feb-19 23:30N 67°03' E 013°52'4 7.6
2018-Feb-19 22:59N 67°01' E 013°45'4 7.3
2018-Feb-19 22:30N 66°58' E 013°39'4 7.3
2018-Feb-19 22:00N 66°58' E 013°30'4 7.1
2018-Feb-19 21:30N 66°54' E 013°31'3 5.9
2018-Feb-19 21:00N 66°52' E 013°36'2 4.7
2018-Feb-19 20:30N 66°53' E 013°42'0 0.0
2018-Feb-19 20:00N 66°53' E 013°42'0 0.0
2018-Feb-19 19:30N 66°53' E 013°42'1 1.4
2018-Feb-19 19:00N 66°52' E 013°42'4 8.3
2018-Feb-19 18:29N 66°49' E 013°33'5 9.8
2018-Feb-19 18:00N 66°48' E 013°22'5 9.4
2018-Feb-19 17:28N 66°44' E 013°13'5 9.5
2018-Feb-19 17:00N 66°40' E 013°08'5 9.8
2018-Feb-19 16:29N 66°35' E 013°04'4 8.8
2018-Feb-19 16:00N 66°32' E 012°58'5 9.8
2018-Feb-19 15:30N 66°27' E 013°04'4 7.3
2018-Feb-19 15:00N 66°24' E 013°07'1 1.4
2018-Feb-19 14:31N 66°23' E 013°06'5 9.3
2018-Feb-19 13:59N 66°20' E 012°57'510.1
2018-Feb-19 13:30N 66°15' E 012°55'510.1
2018-Feb-19 13:00N 66°11' E 012°50'5 9.8
2018-Feb-19 12:30N 66°06' E 012°44'510.0
2018-Feb-19 12:00N 66°02' E 012°36'510.2
2018-Feb-19 11:28N 65°58' E 012°28'510.3
2018-Feb-19 11:00N 65°54' E 012°22'510.4
2018-Feb-19 10:30N 65°49' E 012°21'510.3
2018-Feb-19 10:00N 65°44' E 012°18'510.2
2018-Feb-19 09:30N 65°39' E 012°15'510.2
2018-Feb-19 08:59N 65°34' E 012°13'5 9.7
2018-Feb-19 08:30N 65°29' E 012°13'5 8.7
2018-Feb-19 07:59N 65°25' E 012°09'510.0
2018-Feb-19 07:30N 65°21' E 012°03'510.0
2018-Feb-19 07:00N 65°16' E 011°57'510.2
2018-Feb-19 06:30N 65°12' E 011°52'510.0
2018-Feb-19 06:01N 65°07' E 011°49'510.1
2018-Feb-19 05:30N 65°02' E 011°43'5 9.5
2018-Feb-19 05:01N 64°59' E 011°35'510.0
2018-Feb-19 04:31N 64°56' E 011°26'5 9.7
2018-Feb-19 04:00N 64°53' E 011°17'4 8.6
2018-Feb-19 03:31N 64°50' E 011°10'510.1
2018-Feb-19 03:00N 64°46' E 011°02'510.1
2018-Feb-19 02:30N 64°42' E 010°53'510.0
2018-Feb-19 02:00N 64°39' E 010°46'510.0
2018-Feb-19 01:29N 64°34' E 010°39'510.2
2018-Feb-19 01:00N 64°30' E 010°33'5 9.6
2018-Feb-19 00:30N 64°26' E 010°27'510.1
2018-Feb-19 00:00N 64°22' E 010°22'610.4
2018-Feb-18 23:28N 64°16' E 010°19'5 9.6
2018-Feb-18 23:00N 64°13' E 010°12'510.1
2018-Feb-18 22:30N 64°08' E 010°06'510.1
2018-Feb-18 22:00N 64°05' E 009°57'510.2
2018-Feb-18 21:30N 64°02' E 009°48'510.2
2018-Feb-18 21:00N 63°57' E 009°47'5 9.5
2018-Feb-18 20:29N 63°53' E 009°43'5 9.9
2018-Feb-18 19:59N 63°49' E 009°36'5 9.9
2018-Feb-18 19:30N 63°45' E 009°32'5 9.8
2018-Feb-18 19:00N 63°40' E 009°28'4 7.5
2018-Feb-18 18:30N 63°38' E 009°36'5 9.2
2018-Feb-18 18:00N 63°38' E 009°47'510.9
2018-Feb-18 17:30N 63°33' E 009°52'510.6
2018-Feb-18 17:00N 63°29' E 009°59'510.3
2018-Feb-18 16:31N 63°30' E 010°10'510.4
2018-Feb-18 16:01N 63°33' E 010°20'510.3
2018-Feb-18 15:30N 63°35' E 010°30'510.6
2018-Feb-18 15:01N 63°38' E 010°40'510.4
2018-Feb-18 14:31N 63°41' E 010°49'510.3
2018-Feb-18 14:01N 63°45' E 010°58'510.4
2018-Feb-18 13:30N 63°49' E 011°04'510.0
2018-Feb-18 13:00N 63°54' E 011°05'510.4
2018-Feb-18 12:30N 63°58' E 011°14'510.0
2018-Feb-18 12:00N 64°00' E 011°24'2 4.5
2018-Feb-18 11:30N 64°01' E 011°29'0 0.1
2018-Feb-18 11:00N 64°01' E 011°29'0 0.0
2018-Feb-18 10:30N 64°01' E 011°29'0 0.0
2018-Feb-18 10:00N 64°01' E 011°29'0 0.0
2018-Feb-18 09:30N 64°01' E 011°29'0 0.0
2018-Feb-18 09:00N 64°01' E 011°29'0 0.0
2018-Feb-18 08:29N 64°01' E 011°29'0 0.0
2018-Feb-18 08:00N 64°01' E 011°29'0 0.0
2018-Feb-18 07:30N 64°01' E 011°29'0 0.0
2018-Feb-18 07:00N 64°01' E 011°29'0 0.0
2018-Feb-18 06:30N 64°01' E 011°29'0 0.0
2018-Feb-18 06:00N 64°01' E 011°29'0 0.0
2018-Feb-18 05:28N 64°01' E 011°29'3 5.6
2018-Feb-18 05:00N 63°60' E 011°24'5 9.6
2018-Feb-18 04:30N 63°58' E 011°14'5 9.8
2018-Feb-18 03:59N 63°54' E 011°05'4 8.5
2018-Feb-18 03:30N 63°50' E 011°05'5 9.8
2018-Feb-18 03:01N 63°46' E 010°60'5 9.5
2018-Feb-18 02:30N 63°42' E 010°53'5 9.5
2018-Feb-18 02:00N 63°39' E 010°45'5 9.8
2018-Feb-18 01:31N 63°36' E 010°37'4 8.4
2018-Feb-18 01:00N 63°32' E 010°37'510.4
2018-Feb-18 00:31N 63°28' E 010°45'4 7.2
2018-Feb-18 00:00N 63°28' E 010°53'0 0.0
2018-Feb-17 23:30N 63°28' E 010°53'0 0.0
2018-Feb-17 23:01N 63°28' E 010°53'1 2.3
2018-Feb-17 22:30N 63°28' E 010°50'510.4
2018-Feb-17 22:01N 63°28' E 010°39'510.5
2018-Feb-17 21:31N 63°28' E 010°27'1 3.0
2018-Feb-17 21:01N 63°27' E 010°25'1 2.7
2018-Feb-17 20:30N 63°26' E 010°22'0 0.2
2018-Feb-17 20:00N 63°26' E 010°22'0 0.0
2018-Feb-17 19:30N 63°26' E 010°22'0 0.0
2018-Feb-17 19:00N 63°26' E 010°22'0 0.0
2018-Feb-17 18:30N 63°26' E 010°22'0 0.0
2018-Feb-17 18:01N 63°26' E 010°22'0 0.0
2018-Feb-17 17:30N 63°26' E 010°22'0 0.0
2018-Feb-17 17:01N 63°26' E 010°22'0 0.0
2018-Feb-17 16:31N 63°26' E 010°22'0 0.0
2018-Feb-17 16:01N 63°26' E 010°22'0 0.0
2018-Feb-17 15:30N 63°26' E 010°22'0 0.0
2018-Feb-17 14:59N 63°26' E 010°22'0 0.0
2018-Feb-17 14:31N 63°26' E 010°22'4 8.6
2018-Feb-17 14:01N 63°28' E 010°14'510.3
2018-Feb-17 13:31N 63°29' E 010°02'5 9.4
2018-Feb-17 13:01N 63°31' E 009°54'2 4.6
2018-Feb-17 12:30N 63°34' E 009°54'0 0.0
2018-Feb-17 12:00N 63°34' E 009°54'0 0.0
2018-Feb-17 11:29N 63°34' E 009°54'0 0.5
2018-Feb-17 11:00N 63°34' E 009°53'510.0
2018-Feb-17 10:30N 63°38' E 009°47'5 8.9
2018-Feb-17 09:59N 63°38' E 009°37'611.2
2018-Feb-17 09:30N 63°35' E 009°26'611.6
2018-Feb-17 08:59N 63°32' E 009°14'4 7.5
2018-Feb-17 08:30N 63°31' E 009°07'3 6.0
2018-Feb-17 08:00N 63°29' E 009°01'510.9
2018-Feb-17 07:30N 63°27' E 008°50'510.7
2018-Feb-17 07:00N 63°25' E 008°39'510.6
2018-Feb-17 06:30N 63°23' E 008°28'510.8
2018-Feb-17 06:00N 63°20' E 008°19'611.3
2018-Feb-17 05:29N 63°16' E 008°08'511.2
2018-Feb-17 05:00N 63°14' E 007°58'611.0
2018-Feb-17 04:31N 63°11' E 007°47'611.0
2018-Feb-17 04:00N 63°08' E 007°37'611.0
2018-Feb-17 03:30N 63°05' E 007°27'510.6
2018-Feb-17 03:00N 63°03' E 007°16'510.6
2018-Feb-17 02:30N 63°01' E 007°05'510.8
2018-Feb-17 02:00N 62°59' E 006°54'510.6
2018-Feb-17 01:30N 62°55' E 006°46'611.1
2018-Feb-17 01:00N 62°50' E 006°40'510.9
2018-Feb-17 00:31N 62°45' E 006°33'610.7
2018-Feb-17 00:00N 62°41' E 006°27'510.6
2018-Feb-16 23:29N 62°37' E 006°19'510.7
2018-Feb-16 23:01N 62°33' E 006°11'2 4.2
2018-Feb-16 22:29N 62°32' E 006°08'0 0.0
2018-Feb-16 22:00N 62°32' E 006°08'3 5.6
2018-Feb-16 21:30N 62°29' E 006°11'510.1
2018-Feb-16 21:00N 62°29' E 006°21'1 2.8
2018-Feb-16 20:29N 62°30' E 006°23'0 0.0
2018-Feb-16 20:00N 62°30' E 006°23'1 1.8
2018-Feb-16 19:31N 62°29' E 006°22'5 9.8
2018-Feb-16 19:00N 62°29' E 006°12'3 6.0
2018-Feb-16 18:31N 62°27' E 006°07'1 1.6
2018-Feb-16 18:00N 62°28' E 006°08'0 0.0
2018-Feb-16 17:31N 62°28' E 006°08'0 0.3
2018-Feb-16 17:01N 62°28' E 006°08'0 0.2
2018-Feb-16 16:31N 62°28' E 006°08'0 0.8
2018-Feb-16 16:01N 62°28' E 006°08'0 0.0
2018-Feb-16 15:30N 62°28' E 006°08'2 3.4
2018-Feb-16 15:01N 62°28' E 006°12'2 3.2
2018-Feb-16 14:29N 62°26' E 006°14'0 1.0
2018-Feb-16 14:00N 62°27' E 006°15'0 0.0
2018-Feb-16 13:29N 62°27' E 006°15'1 1.4
2018-Feb-16 13:00N 62°26' E 006°17'0 0.0
2018-Feb-16 12:30N 62°26' E 006°17'2 4.8
2018-Feb-16 12:01N 62°27' E 006°12'3 6.0
2018-Feb-16 11:30N 62°29' E 006°06'1 2.7
2018-Feb-16 11:01N 62°29' E 006°09'1 2.2
2018-Feb-16 10:30N 62°29' E 006°11'0 0.0
2018-Feb-16 09:59N 62°29' E 006°11'0 0.0
2018-Feb-16 09:30N 62°29' E 006°11'0 0.0
2018-Feb-16 09:00N 62°29' E 006°11'0 0.0
2018-Feb-16 08:30N 62°29' E 006°11'3 5.2
2018-Feb-16 08:00N 62°31' E 006°09'1 1.8
2018-Feb-16 07:31N 62°32' E 006°07'0 0.0
2018-Feb-16 07:00N 62°32' E 006°07'0 0.1
2018-Feb-16 06:31N 62°32' E 006°07'3 6.2
2018-Feb-16 06:00N 62°34' E 006°12'5 9.3
2018-Feb-16 05:29N 62°37' E 006°20'5 9.7
2018-Feb-16 05:00N 62°41' E 006°26'510.0
2018-Feb-16 04:30N 62°45' E 006°32'510.1
2018-Feb-16 04:00N 62°49' E 006°38'510.1
2018-Feb-16 03:29N 62°54' E 006°44'5 9.8
2018-Feb-16 03:00N 62°57' E 006°51'5 9.9
2018-Feb-16 02:30N 62°60' E 007°00'510.8
2018-Feb-16 02:00N 63°02' E 007°11'510.4
2018-Feb-16 01:30N 63°04' E 007°22'510.5
2018-Feb-16 01:00N 63°06' E 007°32'510.1
2018-Feb-16 00:31N 63°09' E 007°41'5 9.8
2018-Feb-16 00:00N 63°12' E 007°50'5 9.7
2018-Feb-15 23:30N 63°14' E 007°60'5 9.3
2018-Feb-15 23:00N 63°17' E 008°09'4 9.2
2018-Feb-15 22:30N 63°19' E 008°17'5 9.1
2018-Feb-15 22:00N 63°22' E 008°25'5 9.9
2018-Feb-15 21:30N 63°25' E 008°35'5 9.9
2018-Feb-15 21:00N 63°26' E 008°45'5 9.8
2018-Feb-15 20:29N 63°28' E 008°55'5 9.5
2018-Feb-15 20:00N 63°30' E 009°05'4 8.7
2018-Feb-15 19:30N 63°32' E 009°13'5 9.2
2018-Feb-15 18:59N 63°34' E 009°23'5 9.1
2018-Feb-15 18:29N 63°38' E 009°29'5 9.7
2018-Feb-15 18:00N 63°43' E 009°31'5 9.4
2018-Feb-15 17:29N 63°47' E 009°34'5 9.3
2018-Feb-15 16:59N 63°51' E 009°40'5 9.5
2018-Feb-15 16:30N 63°53' E 009°49'4 8.2
2018-Feb-15 16:00N 63°57' E 009°54'4 8.6
2018-Feb-15 15:30N 64°01' E 009°58'4 7.3
2018-Feb-15 15:01N 64°04' E 010°02'4 7.8
2018-Feb-15 14:30N 64°08' E 010°05'4 9.1
2018-Feb-15 14:00N 64°12' E 010°10'5 9.5
2018-Feb-15 13:30N 64°15' E 010°18'4 8.5
2018-Feb-15 13:00N 64°19' E 010°20'4 9.0
2018-Feb-15 12:30N 64°23' E 010°25'4 8.9
2018-Feb-15 12:00N 64°27' E 010°28'4 8.9
2018-Feb-15 11:30N 64°31' E 010°35'4 8.9
2018-Feb-15 11:00N 64°34' E 010°40'5 8.9
2018-Feb-15 10:30N 64°38' E 010°46'4 8.6
2018-Feb-15 10:00N 64°42' E 010°52'5 9.0
2018-Feb-15 09:30N 64°45' E 010°59'5 9.2
2018-Feb-15 09:00N 64°48' E 011°07'5 9.1
2018-Feb-15 08:30N 64°51' E 011°14'1 2.4
2018-Feb-15 08:00N 64°52' E 011°17'0 0.0
2018-Feb-15 07:30N 64°52' E 011°17'2 4.4
2018-Feb-15 07:01N 64°53' E 011°19'5 9.6
2018-Feb-15 06:31N 64°57' E 011°28'5 9.3
2018-Feb-15 06:00N 64°60' E 011°36'5 9.3
2018-Feb-15 05:30N 65°03' E 011°44'5 9.1
2018-Feb-15 05:00N 65°07' E 011°49'5 9.5
2018-Feb-15 04:29N 65°12' E 011°52'4 9.4
2018-Feb-15 04:00N 65°16' E 011°57'5 9.7
2018-Feb-15 03:30N 65°20' E 012°02'5 9.9
2018-Feb-15 03:00N 65°24' E 012°08'5 9.1
2018-Feb-15 02:30N 65°29' E 012°13'5 9.5
2018-Feb-15 02:00N 65°33' E 012°13'5 9.6
2018-Feb-15 01:30N 65°38' E 012°15'5 9.2
2018-Feb-15 01:00N 65°43' E 012°17'510.0
2018-Feb-15 00:30N 65°47' E 012°20'5 9.1
2018-Feb-15 00:00N 65°52' E 012°22'5 8.9
2018-Feb-14 23:29N 65°56' E 012°25'5 9.8
2018-Feb-14 23:00N 66°00' E 012°32'510.0
2018-Feb-14 22:30N 66°04' E 012°39'510.0
2018-Feb-14 21:59N 66°08' E 012°47'510.1
2018-Feb-14 21:28N 66°13' E 012°53'5 9.9
2018-Feb-14 21:00N 66°17' E 012°55'5 9.6
2018-Feb-14 20:30N 66°22' E 012°57'510.2
2018-Feb-14 20:00N 66°27' E 012°59'5 9.5
2018-Feb-14 19:30N 66°32' E 012°59'4 8.6
2018-Feb-14 19:00N 66°36' E 013°04'5 9.3
2018-Feb-14 18:31N 66°40' E 013°07'5 9.7
2018-Feb-14 18:00N 66°45' E 013°12'5 9.8
2018-Feb-14 17:30N 66°49' E 013°16'5 9.6
2018-Feb-14 17:00N 66°53' E 013°23'4 8.7
2018-Feb-14 16:30N 66°57' E 013°29'5 9.8
2018-Feb-14 16:00N 66°60' E 013°38'510.1
2018-Feb-14 15:30N 67°03' E 013°49'510.0
2018-Feb-14 15:00N 67°06' E 013°58'5 9.9
2018-Feb-14 14:31N 67°11' E 014°04'5 9.8
2018-Feb-14 14:00N 67°15' E 014°10'510.0
2018-Feb-14 13:30N 67°19' E 014°18'510.0
2018-Feb-14 13:00N 67°23' E 014°25'5 9.4
2018-Feb-14 12:30N 67°28' E 014°28'5 9.2
2018-Feb-14 12:00N 67°32' E 014°30'5 9.3
2018-Feb-14 11:29N 67°37' E 014°30'5 9.6
2018-Feb-14 11:00N 67°42' E 014°31'5 9.4
2018-Feb-14 10:30N 67°46' E 014°31'5 8.9
2018-Feb-14 09:59N 67°50' E 014°38'510.0
2018-Feb-14 09:30N 67°53' E 014°49'5 9.9
2018-Feb-14 09:00N 67°55' E 015°01'4 7.6
2018-Feb-14 08:29N 67°54' E 015°12'0 0.0
2018-Feb-14 08:00N 67°54' E 015°12'2 3.4
2018-Feb-14 07:30N 67°54' E 015°07'5 9.6
2018-Feb-14 07:00N 67°54' E 014°55'4 8.4
2018-Feb-14 06:30N 67°54' E 014°43'5 9.7
2018-Feb-14 06:00N 67°59' E 014°41'5 9.6
2018-Feb-14 05:27N 68°04' E 014°38'4 9.7
2018-Feb-14 05:00N 68°08' E 014°36'5 9.9
2018-Feb-14 04:31N 68°13' E 014°34'1 2.0
2018-Feb-14 04:00N 68°14' E 014°35'0 0.0
2018-Feb-14 03:30N 68°14' E 014°35'0 0.0
2018-Feb-14 03:01N 68°14' E 014°35'0 0.0
2018-Feb-14 02:29N 68°14' E 014°35'1 2.6
2018-Feb-14 02:00N 68°13' E 014°38'5 9.6
2018-Feb-14 01:31N 68°13' E 014°50'5 9.2
2018-Feb-14 00:59N 68°17' E 014°58'5 9.4
2018-Feb-14 00:30N 68°21' E 015°03'4 8.6
2018-Feb-14 00:00N 68°25' E 015°08'4 7.7
2018-Feb-13 23:30N 68°29' E 015°12'4 8.3
2018-Feb-13 23:00N 68°33' E 015°10'5 9.1
2018-Feb-13 22:30N 68°36' E 015°17'5 9.7
2018-Feb-13 22:00N 68°40' E 015°25'5 9.7
2018-Feb-13 21:29N 68°45' E 015°25'5 9.8
2018-Feb-13 21:00N 68°50' E 015°28'5 9.6
2018-Feb-13 20:30N 68°54' E 015°34'4 8.7
2018-Feb-13 20:00N 68°58' E 015°38'0 0.1
2018-Feb-13 19:30N 68°58' E 015°38'0 0.0
2018-Feb-13 18:59N 68°58' E 015°38'0 0.0
2018-Feb-13 18:30N 68°58' E 015°38'0 0.0
2018-Feb-13 18:00N 68°58' E 015°38'0 0.0
2018-Feb-13 17:30N 68°58' E 015°38'3 5.7
2018-Feb-13 17:00N 68°59' E 015°46'5 9.3
2018-Feb-13 16:29N 69°02' E 015°57'4 9.0
2018-Feb-13 16:00N 69°05' E 016°04'5 9.2
2018-Feb-13 15:31N 69°09' E 016°12'5 9.4
2018-Feb-13 15:00N 69°13' E 016°20'5 9.1
2018-Feb-13 14:30N 69°16' E 016°27'5 9.0
2018-Feb-13 14:00N 69°20' E 016°34'5 9.6
2018-Feb-13 13:30N 69°24' E 016°42'5 9.7
2018-Feb-13 13:00N 69°28' E 016°49'5 9.6
2018-Feb-13 12:30N 69°31' E 017°00'510.1
2018-Feb-13 12:00N 69°32' E 017°14'5 9.7
2018-Feb-13 11:30N 69°31' E 017°28'2 3.8
2018-Feb-13 10:59N 69°30' E 017°29'0 0.0
2018-Feb-13 10:30N 69°30' E 017°29'0 0.0
2018-Feb-13 09:59N 69°30' E 017°29'2 3.5
2018-Feb-13 09:31N 69°31' E 017°29'5 9.6
2018-Feb-13 09:00N 69°36' E 017°28'5 9.8
2018-Feb-13 08:30N 69°36' E 017°42'5 9.8
2018-Feb-13 08:00N 69°34' E 017°55'611.1
2018-Feb-13 07:30N 69°31' E 018°09'510.1
2018-Feb-13 07:00N 69°31' E 018°23'5 9.9
2018-Feb-13 06:30N 69°33' E 018°36'4 8.4
2018-Feb-13 06:00N 69°34' E 018°48'5 9.1
2018-Feb-13 05:30N 69°38' E 018°56'5 9.0
2018-Feb-13 04:59N 69°42' E 019°02'5 9.7
2018-Feb-13 04:28N 69°46' E 019°10'510.1
2018-Feb-13 03:59N 69°49' E 019°21'510.2
2018-Feb-13 03:30N 69°54' E 019°28'510.1
2018-Feb-13 03:01N 69°57' E 019°38'5 9.9
2018-Feb-13 02:30N 70°01' E 019°47'5 9.8
2018-Feb-13 02:00N 70°03' E 020°00'4 9.0
2018-Feb-13 01:30N 70°06' E 020°08'3 6.8
2018-Feb-13 01:00N 70°08' E 019°59'0 0.1
2018-Feb-13 00:30N 70°08' E 019°59'0 0.0
2018-Feb-13 00:00N 70°08' E 019°59'0 0.0
2018-Feb-12 23:29N 70°08' E 019°59'0 0.0
2018-Feb-12 23:00N 70°08' E 019°59'0 0.0
2018-Feb-12 22:30N 70°08' E 019°59'0 0.0
2018-Feb-12 22:00N 70°08' E 019°59'0 0.0
2018-Feb-12 21:30N 70°08' E 019°59'0 0.0
2018-Feb-12 21:00N 70°08' E 019°59'1 2.9
2018-Feb-12 20:30N 70°08' E 020°03'5 9.4
2018-Feb-12 20:00N 70°10' E 020°15'5 9.5
2018-Feb-12 19:30N 70°12' E 020°28'4 8.0
2018-Feb-12 19:00N 70°15' E 020°37'510.1
2018-Feb-12 18:30N 70°16' E 020°51'5 9.5
2018-Feb-12 18:00N 70°18' E 021°04'5 9.8
2018-Feb-12 17:30N 70°19' E 021°18'510.1
2018-Feb-12 17:00N 70°21' E 021°32'5 9.9
2018-Feb-12 16:30N 70°24' E 021°44'510.3
2018-Feb-12 16:00N 70°21' E 021°58'510.1
2018-Feb-12 15:30N 70°19' E 022°11'510.4
2018-Feb-12 14:59N 70°17' E 022°26'510.4
2018-Feb-12 14:30N 70°15' E 022°39'510.1
2018-Feb-12 14:00N 70°13' E 022°53'510.0
2018-Feb-12 13:30N 70°09' E 023°03'611.2
2018-Feb-12 13:00N 70°04' E 023°10'510.8
2018-Feb-12 12:30N 69°60' E 023°19'1 1.8
2018-Feb-12 12:00N 69°59' E 023°20'0 0.0
2018-Feb-12 11:30N 69°59' E 023°20'2 4.8
2018-Feb-12 11:00N 70°01' E 023°17'4 8.8
2018-Feb-12 10:30N 70°04' E 023°09'4 8.3
2018-Feb-12 10:00N 70°09' E 023°08'5 9.4
2018-Feb-12 09:30N 70°13' E 023°09'5 9.4
2018-Feb-12 08:59N 70°17' E 023°18'5 9.8
2018-Feb-12 08:30N 70°21' E 023°27'5 9.4
2018-Feb-12 08:00N 70°24' E 023°35'5 9.2
2018-Feb-12 07:30N 70°29' E 023°40'5 9.5
2018-Feb-12 07:00N 70°33' E 023°37'5 9.3
2018-Feb-12 06:29N 70°38' E 023°34'4 9.0
2018-Feb-12 06:00N 70°42' E 023°31'5 9.2
2018-Feb-12 05:30N 70°47' E 023°35'5 9.5
2018-Feb-12 05:00N 70°51' E 023°39'5 9.4
2018-Feb-12 04:30N 70°55' E 023°44'5 9.1
2018-Feb-12 04:00N 70°60' E 023°50'2 3.2
2018-Feb-12 03:31N 71°00' E 023°54'  
Track history (hours):
 
Tides and Currents Weather Stations Pressure Air Temp Water Temp Dewpoint Dewpoint Depression Visibility Wind Speed Wind Dir Waves Ship Positions

Vargoey

Last reported at 2018-Feb-22 03:00 UTC. Time now 2018-Feb-22 03:12 UTC.
Position N 69°41' E 018°45'.

Length 55 m.

Type: Cargo ship. MMSI: 258434000.

Date/timePositionNaut miles runAvg speedWind from/ knotsBaromVisibWave heightAir tempDewpointWater temp
2018-Feb-22 03:00N 69°41' E 018°45'0 0.0
2018-Feb-22 02:30N 69°41' E 018°45'2 4.8
2018-Feb-22 02:00N 69°40' E 018°52'3 6.4
2018-Feb-22 01:29N 69°37' E 018°53'4 8.6
2018-Feb-22 01:00N 69°33' E 018°55'610.6
2018-Feb-22 00:29N 69°27' E 018°58'510.6
2018-Feb-22 00:01N 69°23' E 019°04'510.3
2018-Feb-21 23:30N 69°21' E 019°18'510.0
2018-Feb-21 23:00N 69°16' E 019°22'2 3.7
2018-Feb-21 22:30N 69°14' E 019°22'0 0.0
2018-Feb-21 21:59N 69°14' E 019°22'0 0.0
2018-Feb-21 21:30N 69°14' E 019°22'0 0.0
2018-Feb-21 21:00N 69°14' E 019°22'0 0.0
2018-Feb-21 20:30N 69°14' E 019°22'0 0.0
2018-Feb-21 20:00N 69°14' E 019°22'0 0.0
2018-Feb-21 19:30N 69°14' E 019°22'0 0.0
2018-Feb-21 19:00N 69°14' E 019°22'0 0.0
2018-Feb-21 18:29N 69°14' E 019°22'0 0.0
2018-Feb-21 18:00N 69°14' E 019°22'0 0.0
2018-Feb-21 17:30N 69°14' E 019°22'4 8.8
2018-Feb-21 17:00N 69°19' E 019°22'5 9.2
2018-Feb-21 16:30N 69°22' E 019°12'5 9.5
2018-Feb-21 16:00N 69°25' E 019°01'5 9.9
2018-Feb-21 15:30N 69°29' E 018°56'5 9.9
2018-Feb-21 15:00N 69°34' E 018°51'611.4
2018-Feb-21 14:29N 69°33' E 018°35'510.6
2018-Feb-21 14:00N 69°31' E 018°20'510.0
2018-Feb-21 13:30N 69°31' E 018°06'4 8.1
2018-Feb-21 13:00N 69°31' E 017°55'0 0.7
2018-Feb-21 12:30N 69°31' E 017°55'4 7.8
2018-Feb-21 12:00N 69°29' E 018°05'510.1
2018-Feb-21 11:30N 69°24' E 018°07'5 9.3
2018-Feb-21 11:00N 69°20' E 018°02'5 9.5
2018-Feb-21 10:30N 69°15' E 017°58'2 3.3
2018-Feb-21 10:00N 69°14' E 017°58'0 0.3
2018-Feb-21 09:30N 69°14' E 017°58'2 3.0
2018-Feb-21 09:00N 69°12' E 017°60'4 8.3
2018-Feb-21 08:30N 69°09' E 017°52'510.1
2018-Feb-21 08:01N 69°07' E 017°39'510.2
2018-Feb-21 07:30N 69°05' E 017°26'510.0
2018-Feb-21 06:59N 69°01' E 017°17'5 9.8
2018-Feb-21 06:30N 68°59' E 017°06'510.0
2018-Feb-21 06:00N 68°56' E 016°54'510.3
2018-Feb-21 05:30N 68°54' E 016°41'510.0
2018-Feb-21 05:00N 68°51' E 016°30'0 0.3
2018-Feb-21 04:30N 68°51' E 016°30'2 3.9
2018-Feb-21 04:00N 68°53' E 016°27'5 9.5
2018-Feb-21 03:30N 68°56' E 016°17'5 9.5
2018-Feb-21 03:00N 68°58' E 016°05'5 9.7
2018-Feb-21 02:29N 68°59' E 015°52'5 9.6
2018-Feb-21 02:00N 68°58' E 015°39'0 0.3
2018-Feb-21 01:30N 68°58' E 015°38'0 0.0
2018-Feb-21 00:59N 68°58' E 015°38'0 0.0
2018-Feb-21 00:29N 68°58' E 015°38'0 0.6
2018-Feb-21 00:00N 68°58' E 015°38'4 8.7
2018-Feb-20 23:30N 68°54' E 015°33'510.0
2018-Feb-20 22:59N 68°49' E 015°27'5 9.9
2018-Feb-20 22:30N 68°45' E 015°25'510.2
2018-Feb-20 22:00N 68°39' E 015°25'510.0
2018-Feb-20 21:30N 68°36' E 015°15'5 9.7
2018-Feb-20 21:00N 68°32' E 015°09'4 8.7
2018-Feb-20 20:29N 68°27' E 015°11'4 8.1
2018-Feb-20 20:00N 68°24' E 015°06'5 9.5
2018-Feb-20 19:30N 68°20' E 014°60'5 9.3
2018-Feb-20 19:00N 68°15' E 014°56'4 7.4
2018-Feb-20 18:29N 68°14' E 014°46'5 9.3
2018-Feb-20 17:59N 68°13' E 014°34'1 1.8
2018-Feb-20 17:29N 68°14' E 014°35'0 0.0
2018-Feb-20 17:00N 68°14' E 014°35'2 3.0
2018-Feb-20 16:30N 68°13' E 014°34'510.1
2018-Feb-20 16:00N 68°08' E 014°33'510.2
2018-Feb-20 15:30N 68°03' E 014°32'5 9.9
2018-Feb-20 15:00N 67°58' E 014°31'510.3
2018-Feb-20 14:28N 67°52' E 014°31'510.5
2018-Feb-20 13:59N 67°47' E 014°31'510.3
2018-Feb-20 13:30N 67°42' E 014°31'510.4
2018-Feb-20 12:59N 67°37' E 014°30'510.1
2018-Feb-20 12:31N 67°32' E 014°30'510.4
2018-Feb-20 12:00N 67°27' E 014°28'510.5
2018-Feb-20 11:31N 67°22' E 014°24'510.3
2018-Feb-20 11:00N 67°18' E 014°16'3 6.2
2018-Feb-20 10:30N 67°15' E 014°19'510.6
2018-Feb-20 10:00N 67°15' E 014°33'4 8.6
2018-Feb-20 09:30N 67°14' E 014°43'4 7.2
2018-Feb-20 09:00N 67°15' E 014°51'4 7.4
2018-Feb-20 08:30N 67°15' E 015°01'1 1.5
2018-Feb-20 07:58N 67°14' E 015°01'0 0.0
2018-Feb-20 07:30N 67°14' E 015°01'0 0.0
2018-Feb-20 07:00N 67°14' E 015°01'0 0.0
2018-Feb-20 06:28N 67°14' E 015°01'0 0.0
2018-Feb-20 06:00N 67°14' E 015°01'0 0.0
2018-Feb-20 05:29N 67°14' E 015°01'1 2.6
2018-Feb-20 05:00N 67°15' E 014°60'4 9.0
2018-Feb-20 04:30N 67°15' E 014°48'4 8.7
2018-Feb-20 04:00N 67°14' E 014°37'2 4.1
2018-Feb-20 03:30N 67°15' E 014°34'2 3.6
2018-Feb-20 03:00N 67°15' E 014°29'2 3.5
2018-Feb-20 02:31N 67°14' E 014°25'2 3.8
2018-Feb-20 02:00N 67°13' E 014°20'2 4.4
2018-Feb-20 01:30N 67°12' E 014°15'2 5.0
2018-Feb-20 01:01N 67°11' E 014°10'3 6.0
2018-Feb-20 00:30N 67°10' E 014°03'4 7.5
2018-Feb-20 00:00N 67°06' E 013°59'4 7.5
2018-Feb-19 23:30N 67°03' E 013°52'4 7.6
2018-Feb-19 22:59N 67°01' E 013°45'4 7.3
2018-Feb-19 22:30N 66°58' E 013°39'4 7.3
2018-Feb-19 22:00N 66°58' E 013°30'4 7.1
2018-Feb-19 21:30N 66°54' E 013°31'3 5.9
2018-Feb-19 21:00N 66°52' E 013°36'2 4.7
2018-Feb-19 20:30N 66°53' E 013°42'0 0.0
2018-Feb-19 20:00N 66°53' E 013°42'0 0.0
2018-Feb-19 19:30N 66°53' E 013°42'1 1.4
2018-Feb-19 19:00N 66°52' E 013°42'4 8.3
2018-Feb-19 18:29N 66°49' E 013°33'5 9.8
2018-Feb-19 18:00N 66°48' E 013°22'5 9.4
2018-Feb-19 17:28N 66°44' E 013°13'5 9.5
2018-Feb-19 17:00N 66°40' E 013°08'5 9.8
2018-Feb-19 16:29N 66°35' E 013°04'4 8.8
2018-Feb-19 16:00N 66°32' E 012°58'5 9.8
2018-Feb-19 15:30N 66°27' E 013°04'4 7.3
2018-Feb-19 15:00N 66°24' E 013°07'1 1.4
2018-Feb-19 14:31N 66°23' E 013°06'5 9.3
2018-Feb-19 13:59N 66°20' E 012°57'510.1
2018-Feb-19 13:30N 66°15' E 012°55'510.1
2018-Feb-19 13:00N 66°11' E 012°50'5 9.8
2018-Feb-19 12:30N 66°06' E 012°44'510.0
2018-Feb-19 12:00N 66°02' E 012°36'510.2
2018-Feb-19 11:28N 65°58' E 012°28'510.3
2018-Feb-19 11:00N 65°54' E 012°22'510.4
2018-Feb-19 10:30N 65°49' E 012°21'510.3
2018-Feb-19 10:00N 65°44' E 012°18'510.2
2018-Feb-19 09:30N 65°39' E 012°15'510.2
2018-Feb-19 08:59N 65°34' E 012°13'5 9.7
2018-Feb-19 08:30N 65°29' E 012°13'5 8.7
2018-Feb-19 07:59N 65°25' E 012°09'510.0
2018-Feb-19 07:30N 65°21' E 012°03'510.0
2018-Feb-19 07:00N 65°16' E 011°57'510.2
2018-Feb-19 06:30N 65°12' E 011°52'510.0
2018-Feb-19 06:01N 65°07' E 011°49'510.1
2018-Feb-19 05:30N 65°02' E 011°43'5 9.5
2018-Feb-19 05:01N 64°59' E 011°35'510.0
2018-Feb-19 04:31N 64°56' E 011°26'5 9.7
2018-Feb-19 04:00N 64°53' E 011°17'4 8.6
2018-Feb-19 03:31N 64°50' E 011°10'510.1
2018-Feb-19 03:00N 64°46' E 011°02'510.1
2018-Feb-19 02:30N 64°42' E 010°53'510.0
2018-Feb-19 02:00N 64°39' E 010°46'510.0
2018-Feb-19 01:29N 64°34' E 010°39'510.2
2018-Feb-19 01:00N 64°30' E 010°33'5 9.6
2018-Feb-19 00:30N 64°26' E 010°27'510.1
2018-Feb-19 00:00N 64°22' E 010°22'610.4
2018-Feb-18 23:28N 64°16' E 010°19'5 9.6
2018-Feb-18 23:00N 64°13' E 010°12'510.1
2018-Feb-18 22:30N 64°08' E 010°06'510.1
2018-Feb-18 22:00N 64°05' E 009°57'510.2
2018-Feb-18 21:30N 64°02' E 009°48'510.2
2018-Feb-18 21:00N 63°57' E 009°47'5 9.5
2018-Feb-18 20:29N 63°53' E 009°43'5 9.9
2018-Feb-18 19:59N 63°49' E 009°36'5 9.9
2018-Feb-18 19:30N 63°45' E 009°32'5 9.8
2018-Feb-18 19:00N 63°40' E 009°28'4 7.5
2018-Feb-18 18:30N 63°38' E 009°36'5 9.2
2018-Feb-18 18:00N 63°38' E 009°47'510.9
2018-Feb-18 17:30N 63°33' E 009°52'510.6
2018-Feb-18 17:00N 63°29' E 009°59'510.3
2018-Feb-18 16:31N 63°30' E 010°10'510.4
2018-Feb-18 16:01N 63°33' E 010°20'510.3
2018-Feb-18 15:30N 63°35' E 010°30'510.6
2018-Feb-18 15:01N 63°38' E 010°40'510.4
2018-Feb-18 14:31N 63°41' E 010°49'510.3
2018-Feb-18 14:01N 63°45' E 010°58'510.4
2018-Feb-18 13:30N 63°49' E 011°04'510.0
2018-Feb-18 13:00N 63°54' E 011°05'510.4
2018-Feb-18 12:30N 63°58' E 011°14'510.0
2018-Feb-18 12:00N 64°00' E 011°24'2 4.5
2018-Feb-18 11:30N 64°01' E 011°29'0 0.1
2018-Feb-18 11:00N 64°01' E 011°29'0 0.0
2018-Feb-18 10:30N 64°01' E 011°29'0 0.0
2018-Feb-18 10:00N 64°01' E 011°29'0 0.0
2018-Feb-18 09:30N 64°01' E 011°29'0 0.0
2018-Feb-18 09:00N 64°01' E 011°29'0 0.0
2018-Feb-18 08:29N 64°01' E 011°29'0 0.0
2018-Feb-18 08:00N 64°01' E 011°29'0 0.0
2018-Feb-18 07:30N 64°01' E 011°29'0 0.0
2018-Feb-18 07:00N 64°01' E 011°29'0 0.0
2018-Feb-18 06:30N 64°01' E 011°29'0 0.0
2018-Feb-18 06:00N 64°01' E 011°29'0 0.0
2018-Feb-18 05:28N 64°01' E 011°29'3 5.6
2018-Feb-18 05:00N 63°60' E 011°24'5 9.6
2018-Feb-18 04:30N 63°58' E 011°14'5 9.8
2018-Feb-18 03:59N 63°54' E 011°05'4 8.5
2018-Feb-18 03:30N 63°50' E 011°05'5 9.8
2018-Feb-18 03:01N 63°46' E 010°60'5 9.5
2018-Feb-18 02:30N 63°42' E 010°53'5 9.5
2018-Feb-18 02:00N 63°39' E 010°45'5 9.8
2018-Feb-18 01:31N 63°36' E 010°37'4 8.4
2018-Feb-18 01:00N 63°32' E 010°37'510.4
2018-Feb-18 00:31N 63°28' E 010°45'4 7.2
2018-Feb-18 00:00N 63°28' E 010°53'0 0.0
2018-Feb-17 23:30N 63°28' E 010°53'0 0.0
2018-Feb-17 23:01N 63°28' E 010°53'1 2.3
2018-Feb-17 22:30N 63°28' E 010°50'510.4
2018-Feb-17 22:01N 63°28' E 010°39'510.5
2018-Feb-17 21:31N 63°28' E 010°27'1 3.0
2018-Feb-17 21:01N 63°27' E 010°25'1 2.7
2018-Feb-17 20:30N 63°26' E 010°22'0 0.2
2018-Feb-17 20:00N 63°26' E 010°22'0 0.0
2018-Feb-17 19:30N 63°26' E 010°22'0 0.0
2018-Feb-17 19:00N 63°26' E 010°22'0 0.0
2018-Feb-17 18:30N 63°26' E 010°22'0 0.0
2018-Feb-17 18:01N 63°26' E 010°22'0 0.0
2018-Feb-17 17:30N 63°26' E 010°22'0 0.0
2018-Feb-17 17:01N 63°26' E 010°22'0 0.0
2018-Feb-17 16:31N 63°26' E 010°22'0 0.0
2018-Feb-17 16:01N 63°26' E 010°22'0 0.0
2018-Feb-17 15:30N 63°26' E 010°22'0 0.0
2018-Feb-17 14:59N 63°26' E 010°22'0 0.0
2018-Feb-17 14:31N 63°26' E 010°22'4 8.6
2018-Feb-17 14:01N 63°28' E 010°14'510.3
2018-Feb-17 13:31N 63°29' E 010°02'5 9.4
2018-Feb-17 13:01N 63°31' E 009°54'2 4.6
2018-Feb-17 12:30N 63°34' E 009°54'0 0.0
2018-Feb-17 12:00N 63°34' E 009°54'0 0.0
2018-Feb-17 11:29N 63°34' E 009°54'0 0.5
2018-Feb-17 11:00N 63°34' E 009°53'510.0
2018-Feb-17 10:30N 63°38' E 009°47'5 8.9
2018-Feb-17 09:59N 63°38' E 009°37'611.2
2018-Feb-17 09:30N 63°35' E 009°26'611.6
2018-Feb-17 08:59N 63°32' E 009°14'4 7.5
2018-Feb-17 08:30N 63°31' E 009°07'3 6.0
2018-Feb-17 08:00N 63°29' E 009°01'510.9
2018-Feb-17 07:30N 63°27' E 008°50'510.7
2018-Feb-17 07:00N 63°25' E 008°39'510.6
2018-Feb-17 06:30N 63°23' E 008°28'510.8
2018-Feb-17 06:00N 63°20' E 008°19'611.3
2018-Feb-17 05:29N 63°16' E 008°08'511.2
2018-Feb-17 05:00N 63°14' E 007°58'611.0
2018-Feb-17 04:31N 63°11' E 007°47'611.0
2018-Feb-17 04:00N 63°08' E 007°37'611.0
2018-Feb-17 03:30N 63°05' E 007°27'510.6
2018-Feb-17 03:00N 63°03' E 007°16'510.6
2018-Feb-17 02:30N 63°01' E 007°05'510.8
2018-Feb-17 02:00N 62°59' E 006°54'510.6
2018-Feb-17 01:30N 62°55' E 006°46'611.1
2018-Feb-17 01:00N 62°50' E 006°40'510.9
2018-Feb-17 00:31N 62°45' E 006°33'610.7
2018-Feb-17 00:00N 62°41' E 006°27'510.6
2018-Feb-16 23:29N 62°37' E 006°19'510.7
2018-Feb-16 23:01N 62°33' E 006°11'2 4.2
2018-Feb-16 22:29N 62°32' E 006°08'0 0.0
2018-Feb-16 22:00N 62°32' E 006°08'3 5.6
2018-Feb-16 21:30N 62°29' E 006°11'510.1
2018-Feb-16 21:00N 62°29' E 006°21'1 2.8
2018-Feb-16 20:29N 62°30' E 006°23'0 0.0
2018-Feb-16 20:00N 62°30' E 006°23'1 1.8
2018-Feb-16 19:31N 62°29' E 006°22'5 9.8
2018-Feb-16 19:00N 62°29' E 006°12'3 6.0
2018-Feb-16 18:31N 62°27' E 006°07'1 1.6
2018-Feb-16 18:00N 62°28' E 006°08'0 0.0
2018-Feb-16 17:31N 62°28' E 006°08'0 0.3
2018-Feb-16 17:01N 62°28' E 006°08'0 0.2
2018-Feb-16 16:31N 62°28' E 006°08'0 0.8
2018-Feb-16 16:01N 62°28' E 006°08'0 0.0
2018-Feb-16 15:30N 62°28' E 006°08'2 3.4
2018-Feb-16 15:01N 62°28' E 006°12'2 3.2
2018-Feb-16 14:29N 62°26' E 006°14'0 1.0
2018-Feb-16 14:00N 62°27' E 006°15'0 0.0
2018-Feb-16 13:29N 62°27' E 006°15'1 1.4
2018-Feb-16 13:00N 62°26' E 006°17'0 0.0
2018-Feb-16 12:30N 62°26' E 006°17'2 4.8
2018-Feb-16 12:01N 62°27' E 006°12'3 6.0
2018-Feb-16 11:30N 62°29' E 006°06'1 2.7
2018-Feb-16 11:01N 62°29' E 006°09'1 2.2
2018-Feb-16 10:30N 62°29' E 006°11'0 0.0
2018-Feb-16 09:59N 62°29' E 006°11'0 0.0
2018-Feb-16 09:30N 62°29' E 006°11'0 0.0
2018-Feb-16 09:00N 62°29' E 006°11'0 0.0
2018-Feb-16 08:30N 62°29' E 006°11'3 5.2
2018-Feb-16 08:00N 62°31' E 006°09'1 1.8
2018-Feb-16 07:31N 62°32' E 006°07'0 0.0
2018-Feb-16 07:00N 62°32' E 006°07'0 0.1
2018-Feb-16 06:31N 62°32' E 006°07'3 6.2
2018-Feb-16 06:00N 62°34' E 006°12'5 9.3
2018-Feb-16 05:29N 62°37' E 006°20'5 9.7
2018-Feb-16 05:00N 62°41' E 006°26'510.0
2018-Feb-16 04:30N 62°45' E 006°32'510.1
2018-Feb-16 04:00N 62°49' E 006°38'510.1
2018-Feb-16 03:29N 62°54' E 006°44'5 9.8
2018-Feb-16 03:00N 62°57' E 006°51'5 9.9
2018-Feb-16 02:30N 62°60' E 007°00'510.8
2018-Feb-16 02:00N 63°02' E 007°11'510.4
2018-Feb-16 01:30N 63°04' E 007°22'510.5
2018-Feb-16 01:00N 63°06' E 007°32'510.1
2018-Feb-16 00:31N 63°09' E 007°41'5 9.8
2018-Feb-16 00:00N 63°12' E 007°50'5 9.7
2018-Feb-15 23:30N 63°14' E 007°60'5 9.3
2018-Feb-15 23:00N 63°17' E 008°09'4 9.2
2018-Feb-15 22:30N 63°19' E 008°17'5 9.1
2018-Feb-15 22:00N 63°22' E 008°25'5 9.9
2018-Feb-15 21:30N 63°25' E 008°35'5 9.9
2018-Feb-15 21:00N 63°26' E 008°45'5 9.8
2018-Feb-15 20:29N 63°28' E 008°55'5 9.5
2018-Feb-15 20:00N 63°30' E 009°05'4 8.7
2018-Feb-15 19:30N 63°32' E 009°13'5 9.2
2018-Feb-15 18:59N 63°34' E 009°23'5 9.1
2018-Feb-15 18:29N 63°38' E 009°29'5 9.7
2018-Feb-15 18:00N 63°43' E 009°31'5 9.4
2018-Feb-15 17:29N 63°47' E 009°34'5 9.3
2018-Feb-15 16:59N 63°51' E 009°40'5 9.5
2018-Feb-15 16:30N 63°53' E 009°49'4 8.2
2018-Feb-15 16:00N 63°57' E 009°54'4 8.6
2018-Feb-15 15:30N 64°01' E 009°58'4 7.3
2018-Feb-15 15:01N 64°04' E 010°02'4 7.8
2018-Feb-15 14:30N 64°08' E 010°05'4 9.1
2018-Feb-15 14:00N 64°12' E 010°10'5 9.5
2018-Feb-15 13:30N 64°15' E 010°18'4 8.5
2018-Feb-15 13:00N 64°19' E 010°20'4 9.0
2018-Feb-15 12:30N 64°23' E 010°25'4 8.9
2018-Feb-15 12:00N 64°27' E 010°28'4 8.9
2018-Feb-15 11:30N 64°31' E 010°35'4 8.9
2018-Feb-15 11:00N 64°34' E 010°40'5 8.9
2018-Feb-15 10:30N 64°38' E 010°46'4 8.6
2018-Feb-15 10:00N 64°42' E 010°52'5 9.0
2018-Feb-15 09:30N 64°45' E 010°59'5 9.2
2018-Feb-15 09:00N 64°48' E 011°07'5 9.1
2018-Feb-15 08:30N 64°51' E 011°14'1 2.4
2018-Feb-15 08:00N 64°52' E 011°17'0 0.0
2018-Feb-15 07:30N 64°52' E 011°17'2 4.4
2018-Feb-15 07:01N 64°53' E 011°19'5 9.6
2018-Feb-15 06:31N 64°57' E 011°28'5 9.3
2018-Feb-15 06:00N 64°60' E 011°36'5 9.3
2018-Feb-15 05:30N 65°03' E 011°44'5 9.1
2018-Feb-15 05:00N 65°07' E 011°49'5 9.5
2018-Feb-15 04:29N 65°12' E 011°52'4 9.4
2018-Feb-15 04:00N 65°16' E 011°57'5 9.7
2018-Feb-15 03:30N 65°20' E 012°02'5 9.9
2018-Feb-15 03:00N 65°24' E 012°08'5 9.1
2018-Feb-15 02:30N 65°29' E 012°13'5 9.5
2018-Feb-15 02:00N 65°33' E 012°13'5 9.6
2018-Feb-15 01:30N 65°38' E 012°15'5 9.2
2018-Feb-15 01:00N 65°43' E 012°17'510.0
2018-Feb-15 00:30N 65°47' E 012°20'5 9.1
2018-Feb-15 00:00N 65°52' E 012°22'5 8.9
2018-Feb-14 23:29N 65°56' E 012°25'5 9.8
2018-Feb-14 23:00N 66°00' E 012°32'510.0
2018-Feb-14 22:30N 66°04' E 012°39'510.0
2018-Feb-14 21:59N 66°08' E 012°47'510.1
2018-Feb-14 21:28N 66°13' E 012°53'5 9.9
2018-Feb-14 21:00N 66°17' E 012°55'5 9.6
2018-Feb-14 20:30N 66°22' E 012°57'510.2
2018-Feb-14 20:00N 66°27' E 012°59'5 9.5
2018-Feb-14 19:30N 66°32' E 012°59'4 8.6
2018-Feb-14 19:00N 66°36' E 013°04'5 9.3
2018-Feb-14 18:31N 66°40' E 013°07'5 9.7
2018-Feb-14 18:00N 66°45' E 013°12'5 9.8
2018-Feb-14 17:30N 66°49' E 013°16'5 9.6
2018-Feb-14 17:00N 66°53' E 013°23'4 8.7
2018-Feb-14 16:30N 66°57' E 013°29'5 9.8
2018-Feb-14 16:00N 66°60' E 013°38'510.1
2018-Feb-14 15:30N 67°03' E 013°49'510.0
2018-Feb-14 15:00N 67°06' E 013°58'5 9.9
2018-Feb-14 14:31N 67°11' E 014°04'5 9.8
2018-Feb-14 14:00N 67°15' E 014°10'510.0
2018-Feb-14 13:30N 67°19' E 014°18'510.0
2018-Feb-14 13:00N 67°23' E 014°25'5 9.4
2018-Feb-14 12:30N 67°28' E 014°28'5 9.2
2018-Feb-14 12:00N 67°32' E 014°30'5 9.3
2018-Feb-14 11:29N 67°37' E 014°30'5 9.6
2018-Feb-14 11:00N 67°42' E 014°31'5 9.4
2018-Feb-14 10:30N 67°46' E 014°31'5 8.9
2018-Feb-14 09:59N 67°50' E 014°38'510.0
2018-Feb-14 09:30N 67°53' E 014°49'5 9.9
2018-Feb-14 09:00N 67°55' E 015°01'4 7.6
2018-Feb-14 08:29N 67°54' E 015°12'0 0.0
2018-Feb-14 08:00N 67°54' E 015°12'2 3.4
2018-Feb-14 07:30N 67°54' E 015°07'5 9.6
2018-Feb-14 07:00N 67°54' E 014°55'4 8.4
2018-Feb-14 06:30N 67°54' E 014°43'5 9.7
2018-Feb-14 06:00N 67°59' E 014°41'5 9.6
2018-Feb-14 05:27N 68°04' E 014°38'4 9.7
2018-Feb-14 05:00N 68°08' E 014°36'5 9.9
2018-Feb-14 04:31N 68°13' E 014°34'1 2.0
2018-Feb-14 04:00N 68°14' E 014°35'0 0.0
2018-Feb-14 03:30N 68°14' E 014°35'0 0.0
2018-Feb-14 03:01N 68°14' E 014°35'0 0.0
2018-Feb-14 02:29N 68°14' E 014°35'1 2.6
2018-Feb-14 02:00N 68°13' E 014°38'5 9.6
2018-Feb-14 01:31N 68°13' E 014°50'5 9.2
2018-Feb-14 00:59N 68°17' E 014°58'5 9.4
2018-Feb-14 00:30N 68°21' E 015°03'4 8.6
2018-Feb-14 00:00N 68°25' E 015°08'4 7.7
2018-Feb-13 23:30N 68°29' E 015°12'4 8.3
2018-Feb-13 23:00N 68°33' E 015°10'5 9.1
2018-Feb-13 22:30N 68°36' E 015°17'5 9.7
2018-Feb-13 22:00N 68°40' E 015°25'5 9.7
2018-Feb-13 21:29N 68°45' E 015°25'5 9.8
2018-Feb-13 21:00N 68°50' E 015°28'5 9.6
2018-Feb-13 20:30N 68°54' E 015°34'4 8.7
2018-Feb-13 20:00N 68°58' E 015°38'0 0.1
2018-Feb-13 19:30N 68°58' E 015°38'0 0.0
2018-Feb-13 18:59N 68°58' E 015°38'0 0.0
2018-Feb-13 18:30N 68°58' E 015°38'0 0.0
2018-Feb-13 18:00N 68°58' E 015°38'0 0.0
2018-Feb-13 17:30N 68°58' E 015°38'3 5.7
2018-Feb-13 17:00N 68°59' E 015°46'5 9.3
2018-Feb-13 16:29N 69°02' E 015°57'4 9.0
2018-Feb-13 16:00N 69°05' E 016°04'5 9.2
2018-Feb-13 15:31N 69°09' E 016°12'5 9.4
2018-Feb-13 15:00N 69°13' E 016°20'5 9.1
2018-Feb-13 14:30N 69°16' E 016°27'5 9.0
2018-Feb-13 14:00N 69°20' E 016°34'5 9.6
2018-Feb-13 13:30N 69°24' E 016°42'5 9.7
2018-Feb-13 13:00N 69°28' E 016°49'5 9.6
2018-Feb-13 12:30N 69°31' E 017°00'510.1
2018-Feb-13 12:00N 69°32' E 017°14'5 9.7
2018-Feb-13 11:30N 69°31' E 017°28'2 3.8
2018-Feb-13 10:59N 69°30' E 017°29'0 0.0
2018-Feb-13 10:30N 69°30' E 017°29'0 0.0
2018-Feb-13 09:59N 69°30' E 017°29'2 3.5
2018-Feb-13 09:31N 69°31' E 017°29'5 9.6
2018-Feb-13 09:00N 69°36' E 017°28'5 9.8
2018-Feb-13 08:30N 69°36' E 017°42'5 9.8
2018-Feb-13 08:00N 69°34' E 017°55'611.1
2018-Feb-13 07:30N 69°31' E 018°09'510.1
2018-Feb-13 07:00N 69°31' E 018°23'5 9.9
2018-Feb-13 06:30N 69°33' E 018°36'4 8.4
2018-Feb-13 06:00N 69°34' E 018°48'5 9.1
2018-Feb-13 05:30N 69°38' E 018°56'5 9.0
2018-Feb-13 04:59N 69°42' E 019°02'5 9.7
2018-Feb-13 04:28N 69°46' E 019°10'510.1
2018-Feb-13 03:59N 69°49' E 019°21'510.2
2018-Feb-13 03:30N 69°54' E 019°28'510.1
2018-Feb-13 03:01N 69°57' E 019°38'5 9.9
2018-Feb-13 02:30N 70°01' E 019°47'5 9.8
2018-Feb-13 02:00N 70°03' E 020°00'4 9.0
2018-Feb-13 01:30N 70°06' E 020°08'3 6.8
2018-Feb-13 01:00N 70°08' E 019°59'0 0.1
2018-Feb-13 00:30N 70°08' E 019°59'0 0.0
2018-Feb-13 00:00N 70°08' E 019°59'0 0.0
2018-Feb-12 23:29N 70°08' E 019°59'0 0.0
2018-Feb-12 23:00N 70°08' E 019°59'0 0.0
2018-Feb-12 22:30N 70°08' E 019°59'0 0.0
2018-Feb-12 22:00N 70°08' E 019°59'0 0.0
2018-Feb-12 21:30N 70°08' E 019°59'0 0.0
2018-Feb-12 21:00N 70°08' E 019°59'1 2.9
2018-Feb-12 20:30N 70°08' E 020°03'5 9.4
2018-Feb-12 20:00N 70°10' E 020°15'5 9.5
2018-Feb-12 19:30N 70°12' E 020°28'4 8.0
2018-Feb-12 19:00N 70°15' E 020°37'510.1
2018-Feb-12 18:30N 70°16' E 020°51'5 9.5
2018-Feb-12 18:00N 70°18' E 021°04'5 9.8
2018-Feb-12 17:30N 70°19' E 021°18'510.1
2018-Feb-12 17:00N 70°21' E 021°32'5 9.9
2018-Feb-12 16:30N 70°24' E 021°44'510.3
2018-Feb-12 16:00N 70°21' E 021°58'510.1
2018-Feb-12 15:30N 70°19' E 022°11'510.4
2018-Feb-12 14:59N 70°17' E 022°26'510.4
2018-Feb-12 14:30N 70°15' E 022°39'510.1
2018-Feb-12 14:00N 70°13' E 022°53'510.0
2018-Feb-12 13:30N 70°09' E 023°03'611.2
2018-Feb-12 13:00N 70°04' E 023°10'510.8
2018-Feb-12 12:30N 69°60' E 023°19'1 1.8
2018-Feb-12 12:00N 69°59' E 023°20'0 0.0
2018-Feb-12 11:30N 69°59' E 023°20'2 4.8
2018-Feb-12 11:00N 70°01' E 023°17'4 8.8
2018-Feb-12 10:30N 70°04' E 023°09'4 8.3
2018-Feb-12 10:00N 70°09' E 023°08'5 9.4
2018-Feb-12 09:30N 70°13' E 023°09'5 9.4
2018-Feb-12 08:59N 70°17' E 023°18'5 9.8
2018-Feb-12 08:30N 70°21' E 023°27'5 9.4
2018-Feb-12 08:00N 70°24' E 023°35'5 9.2
2018-Feb-12 07:30N 70°29' E 023°40'5 9.5
2018-Feb-12 07:00N 70°33' E 023°37'5 9.3
2018-Feb-12 06:29N 70°38' E 023°34'4 9.0
2018-Feb-12 06:00N 70°42' E 023°31'5 9.2
2018-Feb-12 05:30N 70°47' E 023°35'5 9.5
2018-Feb-12 05:00N 70°51' E 023°39'5 9.4
2018-Feb-12 04:30N 70°55' E 023°44'5 9.1
2018-Feb-12 04:00N 70°60' E 023°50'2 3.2
2018-Feb-12 03:31N 71°00' E 023°54'  

Dump ship's entire track history